createdAt,value
2023-02-16T00:00:52.005Z,20.80
2023-02-16T00:03:24.497Z,20.80
2023-02-16T00:05:54.386Z,20.80
2023-02-16T00:08:24.065Z,20.80
2023-02-16T00:11:13.458Z,20.80
2023-02-16T00:13:46.141Z,20.80
2023-02-16T00:16:24.359Z,20.80
2023-02-16T00:18:54.808Z,20.80
2023-02-16T00:21:24.957Z,20.80
2023-02-16T00:23:55.314Z,20.80
2023-02-16T00:26:28.067Z,20.80
2023-02-16T00:29:02.828Z,20.80
2023-02-16T00:31:36.217Z,20.80
2023-02-16T00:34:38.349Z,20.80
2023-02-16T00:37:11.276Z,20.80
2023-02-16T00:39:42.381Z,20.80
2023-02-16T00:42:31.172Z,20.80
2023-02-16T00:45:02.413Z,20.80
2023-02-16T00:47:39.237Z,20.80
2023-02-16T00:50:30.896Z,20.80
2023-02-16T00:53:00.900Z,20.80
2023-02-16T00:55:33.917Z,20.90
2023-02-16T00:58:32.270Z,20.90
2023-02-16T01:01:10.675Z,20.80
2023-02-16T01:03:40.625Z,20.90
2023-02-16T01:06:29.942Z,20.90
2023-02-16T01:09:42.102Z,20.90
2023-02-16T01:12:18.720Z,20.90
2023-02-16T01:14:52.988Z,20.90
2023-02-16T01:17:23.155Z,20.90
2023-02-16T01:19:52.844Z,21.00
2023-02-16T01:22:22.625Z,21.00
2023-02-16T01:24:52.261Z,21.00
2023-02-16T01:27:21.859Z,21.00
2023-02-16T01:29:51.592Z,21.00
2023-02-16T01:32:21.279Z,21.00
2023-02-16T01:34:50.913Z,21.00
2023-02-16T01:37:21.454Z,21.00
2023-02-16T01:39:51.201Z,21.00
2023-02-16T01:42:48.700Z,21.00
2023-02-16T01:45:29.922Z,21.10
2023-02-16T01:48:08.328Z,21.20
2023-02-16T01:50:51.537Z,21.20
2023-02-16T01:53:39.022Z,21.30
2023-02-16T01:56:27.637Z,21.40
2023-02-16T01:59:02.740Z,21.50
2023-02-16T02:01:59.739Z,21.60
2023-02-16T02:05:13.762Z,21.80
2023-02-16T02:08:07.782Z,21.90
2023-02-16T02:11:14.450Z,22.10
2023-02-16T02:14:08.436Z,22.20
2023-02-16T02:16:38.344Z,22.40
2023-02-16T02:19:08.520Z,22.60
2023-02-16T02:22:36.861Z,22.70
2023-02-16T02:25:45.599Z,22.80
2023-02-16T02:28:30.449Z,22.90
2023-02-16T02:31:25.692Z,23.00
2023-02-16T02:34:30.175Z,23.20
2023-02-16T02:37:17.862Z,23.30
2023-02-16T02:40:26.689Z,23.40
2023-02-16T02:43:26.935Z,23.50
2023-02-16T02:46:07.564Z,23.70
2023-02-16T02:48:37.702Z,23.70
2023-02-16T02:51:31.505Z,23.80
2023-02-16T02:54:28.467Z,23.80
2023-02-16T02:57:40.942Z,23.80
2023-02-16T03:00:52.738Z,23.80
2023-02-16T03:03:38.124Z,23.80
2023-02-16T03:06:15.703Z,23.80
2023-02-16T03:08:50.233Z,23.80
2023-02-16T03:11:47.848Z,23.90
2023-02-16T03:14:24.486Z,24.00
2023-02-16T03:17:17.051Z,24.10
2023-02-16T03:20:09.621Z,24.20
2023-02-16T03:23:00.499Z,24.30
2023-02-16T03:25:54.802Z,24.40
2023-02-16T03:28:47.445Z,24.50
2023-02-16T03:31:26.150Z,24.60
2023-02-16T03:33:56.572Z,24.70
2023-02-16T03:36:33.667Z,24.70
2023-02-16T03:39:04.064Z,24.80
2023-02-16T03:41:42.711Z,24.90
2023-02-16T03:44:12.607Z,24.90
2023-02-16T03:46:42.536Z,25.10
2023-02-16T03:49:12.689Z,25.20
2023-02-16T03:51:42.467Z,25.40
2023-02-16T03:54:12.266Z,25.50
2023-02-16T03:56:42.300Z,25.60
2023-02-16T03:59:12.040Z,25.60
2023-02-16T04:01:41.829Z,25.80
2023-02-16T04:04:12.507Z,25.80
2023-02-16T04:06:42.514Z,25.90
2023-02-16T04:09:12.753Z,26.10
2023-02-16T04:12:01.989Z,26.20
2023-02-16T04:14:31.702Z,26.20
2023-02-16T04:17:01.355Z,26.30
2023-02-16T04:19:32.076Z,26.30
2023-02-16T04:22:01.763Z,26.30
2023-02-16T04:24:31.463Z,26.30
2023-02-16T04:27:01.194Z,26.30
2023-02-16T04:29:31.106Z,26.30
2023-02-16T04:32:00.913Z,26.40
2023-02-16T04:34:30.586Z,26.50
2023-02-16T04:37:00.633Z,26.60
2023-02-16T04:39:30.286Z,26.60
2023-02-16T04:41:59.902Z,26.70
2023-02-16T04:44:29.547Z,26.90
2023-02-16T04:46:59.492Z,27.00
2023-02-16T04:49:29.231Z,27.20
2023-02-16T04:51:59.031Z,27.40
2023-02-16T04:54:29.541Z,27.50
2023-02-16T04:56:59.170Z,27.60
2023-02-16T04:59:29.346Z,27.50
2023-02-16T05:01:59.376Z,27.60
2023-02-16T05:04:30.360Z,27.80
2023-02-16T05:07:00.248Z,27.90
2023-02-16T05:09:29.979Z,28.00
2023-02-16T05:12:19.318Z,28.10
2023-02-16T05:14:48.958Z,28.30
2023-02-16T05:17:24.189Z,28.40
2023-02-16T05:19:56.415Z,28.40
2023-02-16T05:22:26.639Z,28.30
2023-02-16T05:24:56.589Z,28.30
2023-02-16T05:27:30.278Z,28.40
2023-02-16T05:30:00.663Z,28.50
2023-02-16T05:32:30.483Z,28.50
2023-02-16T05:35:00.178Z,28.60
2023-02-16T05:37:30.059Z,28.70
2023-02-16T05:39:59.936Z,28.80
2023-02-16T05:42:29.557Z,28.90
2023-02-16T05:44:59.191Z,28.90
2023-02-16T05:47:28.976Z,28.90
2023-02-16T05:49:58.699Z,28.90
2023-02-16T05:52:28.849Z,28.80
2023-02-16T05:54:58.608Z,28.80
2023-02-16T05:57:28.197Z,28.90
2023-02-16T05:59:57.996Z,29.00
2023-02-16T06:02:27.886Z,29.10
2023-02-16T06:04:58.188Z,29.20
2023-02-16T06:07:28.205Z,29.30
2023-02-16T06:09:58.218Z,29.40
2023-02-16T06:12:27.989Z,29.50
2023-02-16T06:14:57.694Z,29.40
2023-02-16T06:17:27.522Z,29.50
2023-02-16T06:19:57.626Z,29.50
2023-02-16T06:22:27.350Z,29.60
2023-02-16T06:24:57.090Z,29.70
2023-02-16T06:27:26.925Z,29.80
2023-02-16T06:29:56.902Z,29.80
2023-02-16T06:32:26.943Z,29.80
2023-02-16T06:34:56.665Z,29.80
2023-02-16T06:37:27.217Z,29.70
2023-02-16T06:39:56.907Z,29.60
2023-02-16T06:42:26.564Z,29.50
2023-02-16T06:44:56.164Z,29.60
2023-02-16T06:47:25.895Z,29.80
2023-02-16T06:49:55.615Z,29.80
2023-02-16T06:52:25.296Z,29.90
2023-02-16T06:54:55.029Z,29.80
2023-02-16T06:57:24.751Z,29.80
2023-02-16T06:59:54.347Z,29.70
2023-02-16T07:02:24.560Z,29.70
2023-02-16T07:04:54.894Z,29.60
2023-02-16T07:07:25.886Z,29.50
2023-02-16T07:09:56.277Z,29.50
2023-02-16T07:12:26.243Z,29.50
2023-02-16T07:14:56.042Z,29.50
2023-02-16T07:17:25.777Z,29.60
2023-02-16T07:19:55.533Z,29.60
2023-02-16T07:22:25.240Z,29.70
2023-02-16T07:24:57.723Z,29.60
2023-02-16T07:27:28.451Z,29.60
2023-02-16T07:29:58.283Z,29.40
2023-02-16T07:32:28.801Z,29.50
2023-02-16T07:34:58.564Z,29.60
2023-02-16T07:37:28.184Z,29.80
2023-02-16T07:39:58.246Z,29.80
2023-02-16T07:42:31.460Z,29.80
2023-02-16T07:45:01.608Z,29.80
2023-02-16T07:47:31.208Z,29.80
2023-02-16T07:50:00.966Z,30.00
2023-02-16T07:52:32.778Z,30.00
2023-02-16T07:55:02.532Z,30.00
2023-02-16T07:57:32.434Z,30.10
2023-02-16T08:00:02.114Z,30.10
2023-02-16T08:02:31.909Z,30.20
2023-02-16T08:05:01.768Z,30.30
2023-02-16T08:07:32.275Z,30.30
2023-02-16T08:10:02.950Z,30.30
2023-02-16T08:12:32.674Z,30.30
2023-02-16T08:15:02.437Z,30.30
2023-02-16T08:17:32.249Z,30.30
2023-02-16T08:20:01.957Z,30.30
2023-02-16T08:22:32.468Z,30.30
2023-02-16T08:25:02.213Z,30.30
2023-02-16T08:27:32.154Z,30.40
2023-02-16T08:30:02.814Z,30.40
2023-02-16T08:32:32.694Z,30.50
2023-02-16T08:35:02.483Z,30.50
2023-02-16T08:37:32.173Z,30.40
2023-02-16T08:40:02.480Z,30.30
2023-02-16T08:42:32.407Z,30.30
2023-02-16T08:45:02.234Z,30.30
2023-02-16T08:47:31.850Z,30.30
2023-02-16T08:50:01.552Z,30.30
2023-02-16T08:52:31.631Z,30.20
2023-02-16T08:55:01.252Z,30.10
2023-02-16T08:57:31.006Z,30.00
2023-02-16T09:00:20.392Z,30.00
2023-02-16T09:02:50.176Z,30.10
2023-02-16T09:05:20.102Z,30.20
2023-02-16T09:07:50.655Z,30.20
2023-02-16T09:10:21.212Z,30.40
2023-02-16T09:12:51.648Z,30.50
2023-02-16T09:15:22.504Z,30.60
2023-02-16T09:17:52.471Z,30.60
2023-02-16T09:20:22.324Z,30.60
2023-02-16T09:22:52.407Z,30.60
2023-02-16T09:25:24.010Z,30.50
2023-02-16T09:27:54.847Z,30.40
2023-02-16T09:30:25.779Z,30.30
2023-02-16T09:32:56.568Z,30.20
2023-02-16T09:35:26.358Z,30.20
2023-02-16T09:37:56.132Z,30.20
2023-02-16T09:40:26.261Z,30.30
2023-02-16T09:43:15.027Z,30.30
2023-02-16T09:45:49.467Z,30.20
2023-02-16T09:48:39.374Z,30.20
2023-02-16T09:51:10.653Z,30.10
2023-02-16T09:53:46.745Z,30.10
2023-02-16T09:56:41.433Z,30.10
2023-02-16T09:59:42.727Z,30.00
2023-02-16T10:02:44.836Z,30.00
2023-02-16T10:05:49.359Z,30.00
2023-02-16T10:08:40.575Z,30.00
2023-02-16T10:11:47.225Z,29.80
2023-02-16T10:14:56.200Z,29.80
2023-02-16T10:17:47.127Z,29.70
2023-02-16T10:20:29.095Z,29.60
2023-02-16T10:23:34.682Z,29.50
2023-02-16T10:26:16.396Z,29.40
2023-02-16T10:28:58.711Z,29.30
2023-02-16T10:32:01.039Z,29.20
2023-02-16T10:34:52.482Z,29.20
2023-02-16T10:38:02.161Z,29.20
2023-02-16T10:41:01.321Z,29.20
2023-02-16T10:43:46.082Z,29.10
2023-02-16T10:46:25.559Z,29.00
2023-02-16T10:48:57.437Z,29.10
2023-02-16T10:51:32.460Z,29.00
2023-02-16T10:54:12.381Z,28.90
2023-02-16T10:57:03.577Z,28.90
2023-02-16T10:59:44.289Z,28.80
2023-02-16T11:02:22.143Z,28.80
2023-02-16T11:04:56.109Z,28.70
2023-02-16T11:07:28.708Z,28.60
2023-02-16T11:10:02.613Z,28.60
2023-02-16T11:12:41.212Z,28.50
2023-02-16T11:15:28.559Z,28.40
2023-02-16T11:18:06.640Z,28.40
2023-02-16T11:20:56.932Z,28.30
2023-02-16T11:23:30.284Z,28.20
2023-02-16T11:26:30.588Z,28.20
2023-02-16T11:29:22.176Z,28.10
2023-02-16T11:31:52.205Z,28.00
2023-02-16T11:34:44.157Z,27.90
2023-02-16T11:37:31.498Z,27.90
2023-02-16T11:40:05.703Z,27.90
2023-02-16T11:42:50.131Z,27.80
2023-02-16T11:45:36.266Z,27.70
2023-02-16T11:48:10.127Z,27.70
2023-02-16T11:50:41.657Z,27.60
2023-02-16T11:53:25.414Z,27.60
2023-02-16T11:56:31.127Z,27.50
2023-02-16T11:59:22.477Z,27.40
2023-02-16T12:02:23.908Z,27.40
2023-02-16T12:05:33.379Z,27.30
2023-02-16T12:08:32.455Z,27.30
2023-02-16T12:11:28.048Z,27.20
2023-02-16T12:14:24.168Z,27.10
2023-02-16T12:17:22.108Z,27.10
2023-02-16T12:20:07.515Z,27.00
2023-02-16T12:22:50.029Z,27.00
2023-02-16T12:25:41.477Z,26.90
2023-02-16T12:28:43.934Z,26.80
2023-02-16T12:31:52.975Z,26.80
2023-02-16T12:34:51.108Z,26.70
2023-02-16T12:37:48.345Z,26.60
2023-02-16T12:40:58.468Z,26.60
2023-02-16T12:43:49.692Z,26.50
2023-02-16T12:46:42.201Z,26.40
2023-02-16T12:49:36.795Z,26.40
2023-02-16T12:52:14.882Z,26.30
2023-02-16T12:54:55.342Z,26.30
2023-02-16T12:57:30.940Z,26.30
2023-02-16T13:00:23.737Z,26.20
2023-02-16T13:02:59.003Z,26.20
2023-02-16T13:05:37.721Z,26.10
2023-02-16T13:08:23.703Z,26.10
2023-02-16T13:11:18.593Z,26.00
2023-02-16T13:13:50.972Z,25.90
2023-02-16T13:16:40.975Z,25.80
2023-02-16T13:19:16.059Z,25.80
2023-02-16T13:22:08.919Z,25.70
2023-02-16T13:25:05.956Z,25.70
2023-02-16T13:28:10.664Z,25.60
2023-02-16T13:31:08.338Z,25.60
2023-02-16T13:33:57.233Z,25.60
2023-02-16T13:36:56.620Z,25.50
2023-02-16T13:39:52.575Z,25.50
2023-02-16T13:42:57.272Z,25.50
2023-02-16T13:45:37.025Z,25.40
2023-02-16T13:48:16.717Z,25.40
2023-02-16T13:50:47.818Z,25.30
2023-02-16T13:53:23.742Z,25.30
2023-02-16T13:56:25.032Z,25.30
2023-02-16T13:58:55.342Z,25.30
2023-02-16T14:01:44.962Z,25.20
2023-02-16T14:04:35.899Z,25.20
2023-02-16T14:07:34.492Z,25.20
2023-02-16T14:10:04.260Z,25.10
2023-02-16T14:27:02.833Z,24.90
2023-02-16T14:30:04.336Z,24.90
2023-02-16T14:35:16.087Z,24.90
2023-02-16T14:38:00.700Z,24.90
2023-02-16T16:48:39.121Z,24.00
2023-02-16T22:38:12.175Z,21.10
2023-02-16T22:40:41.931Z,21.10
2023-02-16T22:43:11.737Z,21.10
2023-02-16T22:45:41.550Z,21.10
2023-02-16T22:48:11.319Z,21.00
2023-02-16T22:50:41.052Z,21.00
2023-02-16T22:53:10.754Z,21.00
2023-02-16T22:55:43.800Z,21.00
2023-02-16T22:58:13.573Z,20.90
2023-02-16T23:00:43.211Z,20.90
2023-02-16T23:03:12.889Z,20.80
2023-02-16T23:05:43.270Z,20.80
2023-02-16T23:08:13.829Z,20.80
2023-02-16T23:11:01.524Z,20.70
2023-02-16T23:13:33.178Z,20.70
2023-02-16T23:16:13.766Z,20.70
2023-02-16T23:18:44.347Z,20.70
2023-02-16T23:21:27.181Z,20.70
2023-02-16T23:23:57.961Z,20.60
2023-02-16T23:26:30.056Z,20.60
2023-02-16T23:29:02.058Z,20.60
2023-02-16T23:31:36.776Z,20.60
2023-02-16T23:34:07.899Z,20.50
2023-02-16T23:36:39.626Z,20.50
2023-02-16T23:39:15.818Z,20.50
2023-02-16T23:41:45.871Z,20.40
2023-02-16T23:44:16.516Z,20.40
2023-02-16T23:46:46.482Z,20.30
2023-02-16T23:49:16.195Z,20.30
2023-02-16T23:51:45.930Z,20.20
2023-02-16T23:54:15.765Z,20.20
2023-02-16T23:56:45.466Z,20.20
2023-02-16T23:59:15.259Z,20.20
